OIAA

Abadan Airport

Abadan, Iran
TAF OIAA 251100Z 2512/2618 33003MPS 7000 NSC TEMPO 2512/2515 33008MPS TEMPO 2606/2615 33008MPS
Issued Valid From Valid To
Sep-25 @ 11:00 UTC
(4 hours ago)
Sep-25 @ 12:00 UTC
(3 hours ago)
Sep-26 @ 18:00 UTC
(-1 days ago)
Sep-25 @ 12:00 to Sep-26 @ 18:00
TAF OIAA 251100Z 2512/2618 33003MPS 7000 NSC
Wind Visibility Clouds
330° at 6 knots 7,001 meters
  • No significant clouds
Expired Click to View Sep-25 @ 12:00 to Sep-25 @ 15:00
TEMPO 2512/2515 33008MPS
Wind
330° at 16 knots
Temporary Sep-26 @ 06:00 to Sep-26 @ 15:00
TEMPO 2606/2615 33008MPS
Wind
330° at 16 knots
TAF OIAA 251100Z 2512/2618 33003MPS 7000 NSC TEMPO 2512/2515 33008MPS TEMPO 2606/2615 33008MPS
Issued Sep-25 @ 11:00 UTC
(4 hours ago)
Valid From Sep-25 @ 12:00 UTC
(3 hours ago)
Valid To Sep-26 @ 18:00 UTC
(-1 days ago)
Sep-25 @ 12:00 - Sep-26 @ 18:00
Wind Visibility
330° at 6 knots 7,001 meters
Clouds
  • No significant clouds
Sep-25 @ 12:00 - Sep-25 @ 15:00
Wind
330° at 16 knots
Temporary Sep-26 @ 06:00 - Sep-26 @ 15:00
Wind
330° at 16 knots